sensor_id;sensor_type;location;lat;lon;timestamp;P1;durP1;ratioP1;P2;durP2;ratioP2
55114;SDS011;41010;53.252;5.786;2023-07-24T00:00:44;7.68;;;2.85;;
55114;SDS011;41010;53.252;5.786;2023-07-24T00:03:12;5.97;;;2.97;;
55114;SDS011;41010;53.252;5.786;2023-07-24T00:05:39;8.60;;;3.13;;
55114;SDS011;41010;53.252;5.786;2023-07-24T00:08:08;10.48;;;3.20;;
55114;SDS011;41010;53.252;5.786;2023-07-24T00:10:35;7.82;;;3.25;;
55114;SDS011;41010;53.252;5.786;2023-07-24T00:13:02;8.18;;;2.75;;
55114;SDS011;41010;53.252;5.786;2023-07-24T00:15:30;12.57;;;3.00;;
55114;SDS011;41010;53.252;5.786;2023-07-24T00:17:57;9.00;;;3.05;;
55114;SDS011;41010;53.252;5.786;2023-07-24T00:20:24;4.95;;;3.13;;
55114;SDS011;41010;53.252;5.786;2023-07-24T00:22:52;9.40;;;3.20;;
55114;SDS011;41010;53.252;5.786;2023-07-24T00:25:21;10.23;;;3.15;;
55114;SDS011;41010;53.252;5.786;2023-07-24T00:27:48;11.00;;;3.10;;
55114;SDS011;41010;53.252;5.786;2023-07-24T00:30:15;11.95;;;3.05;;
55114;SDS011;41010;53.252;5.786;2023-07-24T00:32:42;10.43;;;3.10;;
55114;SDS011;41010;53.252;5.786;2023-07-24T00:35:10;7.72;;;2.95;;
55114;SDS011;41010;53.252;5.786;2023-07-24T00:37:37;15.77;;;3.38;;
55114;SDS011;41010;53.252;5.786;2023-07-24T00:40:05;21.73;;;3.47;;
55114;SDS011;41010;53.252;5.786;2023-07-24T00:42:34;8.15;;;2.63;;
55114;SDS011;41010;53.252;5.786;2023-07-24T00:45:01;8.18;;;3.00;;
55114;SDS011;41010;53.252;5.786;2023-07-24T00:47:28;10.02;;;3.00;;
55114;SDS011;41010;53.252;5.786;2023-07-24T00:49:55;9.07;;;2.97;;
55114;SDS011;41010;53.252;5.786;2023-07-24T00:52:23;6.00;;;2.63;;
55114;SDS011;41010;53.252;5.786;2023-07-24T00:54:51;11.55;;;2.85;;
55114;SDS011;41010;53.252;5.786;2023-07-24T00:57:18;11.23;;;2.80;;
55114;SDS011;41010;53.252;5.786;2023-07-24T00:59:46;6.38;;;2.70;;
55114;SDS011;41010;53.252;5.786;2023-07-24T01:02:14;7.53;;;3.00;;
55114;SDS011;41010;53.252;5.786;2023-07-24T01:04:41;5.80;;;3.00;;
55114;SDS011;41010;53.252;5.786;2023-07-24T01:07:08;8.23;;;2.80;;
55114;SDS011;41010;53.252;5.786;2023-07-24T01:09:35;11.40;;;3.63;;
55114;SDS011;41010;53.252;5.786;2023-07-24T01:12:04;8.63;;;2.67;;
55114;SDS011;41010;53.252;5.786;2023-07-24T01:14:35;8.70;;;2.90;;
55114;SDS011;41010;53.252;5.786;2023-07-24T01:17:05;8.50;;;2.90;;
55114;SDS011;41010;53.252;5.786;2023-07-24T01:19:35;7.70;;;2.95;;
55114;SDS011;41010;53.252;5.786;2023-07-24T01:22:08;9.55;;;2.80;;
55114;SDS011;41010;53.252;5.786;2023-07-24T01:27:05;6.45;;;2.60;;
55114;SDS011;41010;53.252;5.786;2023-07-24T01:29:34;6.45;;;3.03;;
55114;SDS011;41010;53.252;5.786;2023-07-24T01:32:01;6.63;;;3.05;;
55114;SDS011;41010;53.252;5.786;2023-07-24T01:34:28;11.65;;;3.05;;
55114;SDS011;41010;53.252;5.786;2023-07-24T01:36:55;7.35;;;2.90;;
55114;SDS011;41010;53.252;5.786;2023-07-24T01:39:23;7.65;;;2.67;;
55114;SDS011;41010;53.252;5.786;2023-07-24T01:41:50;13.65;;;2.97;;
55114;SDS011;41010;53.252;5.786;2023-07-24T01:44:19;7.45;;;3.20;;
55114;SDS011;41010;53.252;5.786;2023-07-24T01:46:46;11.73;;;3.58;;
55114;SDS011;41010;53.252;5.786;2023-07-24T01:49:13;8.10;;;3.78;;
55114;SDS011;41010;53.252;5.786;2023-07-24T01:51:40;9.60;;;3.40;;
55114;SDS011;41010;53.252;5.786;2023-07-24T01:54:08;8.48;;;2.92;;
55114;SDS011;41010;53.252;5.786;2023-07-24T01:56:35;8.93;;;3.22;;
55114;SDS011;41010;53.252;5.786;2023-07-24T01:59:02;7.72;;;3.15;;
55114;SDS011;41010;53.252;5.786;2023-07-24T02:01:31;10.68;;;3.58;;
55114;SDS011;41010;53.252;5.786;2023-07-24T02:03:58;9.13;;;3.20;;
55114;SDS011;41010;53.252;5.786;2023-07-24T02:06:26;11.85;;;3.50;;
55114;SDS011;41010;53.252;5.786;2023-07-24T02:08:53;10.43;;;3.45;;
55114;SDS011;41010;53.252;5.786;2023-07-24T02:11:20;10.43;;;3.80;;
55114;SDS011;41010;53.252;5.786;2023-07-24T02:13:47;6.32;;;3.20;;
55114;SDS011;41010;53.252;5.786;2023-07-24T02:16:15;9.13;;;3.10;;
55114;SDS011;41010;53.252;5.786;2023-07-24T02:18:43;9.10;;;3.40;;
55114;SDS011;41010;53.252;5.786;2023-07-24T02:21:10;7.10;;;3.17;;
55114;SDS011;41010;53.252;5.786;2023-07-24T02:23:38;7.68;;;3.28;;
55114;SDS011;41010;53.252;5.786;2023-07-24T02:26:05;8.00;;;3.30;;
55114;SDS011;41010;53.252;5.786;2023-07-24T02:28:32;9.27;;;3.33;;
55114;SDS011;41010;53.252;5.786;2023-07-24T02:30:59;6.22;;;3.03;;
55114;SDS011;41010;53.252;5.786;2023-07-24T02:33:27;7.40;;;3.22;;
55114;SDS011;41010;53.252;5.786;2023-07-24T02:35:55;9.88;;;3.55;;
55114;SDS011;41010;53.252;5.786;2023-07-24T02:38:22;7.85;;;3.22;;
55114;SDS011;41010;53.252;5.786;2023-07-24T02:40:50;6.60;;;3.17;;
55114;SDS011;41010;53.252;5.786;2023-07-24T02:43:17;10.98;;;3.50;;
55114;SDS011;41010;53.252;5.786;2023-07-24T02:45:44;9.25;;;3.58;;
55114;SDS011;41010;53.252;5.786;2023-07-24T02:48:11;7.60;;;3.42;;
55114;SDS011;41010;53.252;5.786;2023-07-24T02:50:39;12.70;;;3.55;;
55114;SDS011;41010;53.252;5.786;2023-07-24T02:53:07;10.30;;;3.53;;
55114;SDS011;41010;53.252;5.786;2023-07-24T02:55:34;8.90;;;3.30;;
55114;SDS011;41010;53.252;5.786;2023-07-24T02:58:02;7.93;;;3.80;;
55114;SDS011;41010;53.252;5.786;2023-07-24T03:00:29;12.60;;;3.40;;
55114;SDS011;41010;53.252;5.786;2023-07-24T03:02:56;11.50;;;3.65;;
55114;SDS011;41010;53.252;5.786;2023-07-24T03:05:23;12.07;;;3.97;;
55114;SDS011;41010;53.252;5.786;2023-07-24T03:07:51;9.13;;;3.45;;
55114;SDS011;41010;53.252;5.786;2023-07-24T03:10:19;9.85;;;3.75;;
55114;SDS011;41010;53.252;5.786;2023-07-24T03:12:46;12.25;;;4.10;;
55114;SDS011;41010;53.252;5.786;2023-07-24T03:15:14;8.45;;;3.42;;
55114;SDS011;41010;53.252;5.786;2023-07-24T03:17:41;14.32;;;4.00;;
55114;SDS011;41010;53.252;5.786;2023-07-24T03:20:08;7.40;;;3.60;;
55114;SDS011;41010;53.252;5.786;2023-07-24T03:22:36;7.28;;;3.63;;
55114;SDS011;41010;53.252;5.786;2023-07-24T03:25:03;10.93;;;3.97;;
55114;SDS011;41010;53.252;5.786;2023-07-24T03:27:32;14.63;;;3.63;;
55114;SDS011;41010;53.252;5.786;2023-07-24T03:29:59;8.13;;;3.70;;
55114;SDS011;41010;53.252;5.786;2023-07-24T03:32:27;8.55;;;3.58;;
55114;SDS011;41010;53.252;5.786;2023-07-24T03:34:54;10.95;;;3.53;;
55114;SDS011;41010;53.252;5.786;2023-07-24T03:37:22;11.45;;;3.65;;
55114;SDS011;41010;53.252;5.786;2023-07-24T03:39:49;12.35;;;4.00;;
55114;SDS011;41010;53.252;5.786;2023-07-24T03:42:24;13.30;;;4.07;;
55114;SDS011;41010;53.252;5.786;2023-07-24T03:44:53;9.70;;;3.60;;
55114;SDS011;41010;53.252;5.786;2023-07-24T03:47:20;12.23;;;3.25;;
55114;SDS011;41010;53.252;5.786;2023-07-24T03:49:47;13.32;;;4.30;;
55114;SDS011;41010;53.252;5.786;2023-07-24T03:52:15;9.40;;;3.60;;
55114;SDS011;41010;53.252;5.786;2023-07-24T03:54:42;12.05;;;3.55;;
55114;SDS011;41010;53.252;5.786;2023-07-24T03:57:09;8.70;;;3.03;;
55114;SDS011;41010;53.252;5.786;2023-07-24T03:59:36;9.48;;;3.35;;
55114;SDS011;41010;53.252;5.786;2023-07-24T04:02:05;20.17;;;4.25;;
55114;SDS011;41010;53.252;5.786;2023-07-24T04:04:32;12.07;;;3.30;;
55114;SDS011;41010;53.252;5.786;2023-07-24T04:06:59;9.13;;;3.20;;
55114;SDS011;41010;53.252;5.786;2023-07-24T04:09:27;11.93;;;3.90;;
55114;SDS011;41010;53.252;5.786;2023-07-24T04:11:54;11.65;;;3.40;;
55114;SDS011;41010;53.252;5.786;2023-07-24T04:14:22;7.15;;;3.05;;
55114;SDS011;41010;53.252;5.786;2023-07-24T04:16:49;9.32;;;3.40;;
55114;SDS011;41010;53.252;5.786;2023-07-24T04:19:17;10.10;;;3.30;;
55114;SDS011;41010;53.252;5.786;2023-07-24T04:21:45;10.30;;;3.20;;
55114;SDS011;41010;53.252;5.786;2023-07-24T04:24:12;12.88;;;3.60;;
55114;SDS011;41010;53.252;5.786;2023-07-24T04:26:39;9.65;;;3.28;;
55114;SDS011;41010;53.252;5.786;2023-07-24T04:29:07;8.65;;;3.13;;
55114;SDS011;41010;53.252;5.786;2023-07-24T04:31:34;14.35;;;3.78;;
55114;SDS011;41010;53.252;5.786;2023-07-24T04:34:02;7.97;;;3.00;;
55114;SDS011;41010;53.252;5.786;2023-07-24T04:36:30;9.15;;;3.22;;
55114;SDS011;41010;53.252;5.786;2023-07-24T04:38:57;8.18;;;3.45;;
55114;SDS011;41010;53.252;5.786;2023-07-24T04:41:25;8.80;;;2.92;;
55114;SDS011;41010;53.252;5.786;2023-07-24T04:43:52;7.97;;;3.35;;
55114;SDS011;41010;53.252;5.786;2023-07-24T04:46:19;11.43;;;2.88;;
55114;SDS011;41010;53.252;5.786;2023-07-24T04:48:46;9.80;;;3.47;;
55114;SDS011;41010;53.252;5.786;2023-07-24T04:51:14;12.85;;;3.03;;
55114;SDS011;41010;53.252;5.786;2023-07-24T04:53:42;7.47;;;3.00;;
55114;SDS011;41010;53.252;5.786;2023-07-24T04:56:09;11.73;;;3.45;;
55114;SDS011;41010;53.252;5.786;2023-07-24T04:58:37;8.35;;;3.05;;
55114;SDS011;41010;53.252;5.786;2023-07-24T05:01:04;7.15;;;3.00;;
55114;SDS011;41010;53.252;5.786;2023-07-24T05:03:31;8.02;;;3.05;;
55114;SDS011;41010;53.252;5.786;2023-07-24T05:05:58;9.15;;;2.85;;
55114;SDS011;41010;53.252;5.786;2023-07-24T05:08:26;10.27;;;3.38;;
55114;SDS011;41010;53.252;5.786;2023-07-24T05:10:55;9.98;;;2.78;;
55114;SDS011;41010;53.252;5.786;2023-07-24T05:13:22;10.05;;;3.22;;
55114;SDS011;41010;53.252;5.786;2023-07-24T05:15:49;9.82;;;3.30;;
55114;SDS011;41010;53.252;5.786;2023-07-24T05:18:17;13.65;;;3.15;;
55114;SDS011;41010;53.252;5.786;2023-07-24T05:20:44;12.82;;;3.20;;
55114;SDS011;41010;53.252;5.786;2023-07-24T05:23:13;9.00;;;2.92;;
55114;SDS011;41010;53.252;5.786;2023-07-24T05:25:41;7.82;;;2.80;;
55114;SDS011;41010;53.252;5.786;2023-07-24T05:28:09;8.93;;;2.78;;
55114;SDS011;41010;53.252;5.786;2023-07-24T05:30:37;9.40;;;3.17;;
55114;SDS011;41010;53.252;5.786;2023-07-24T05:33:04;7.03;;;2.72;;
55114;SDS011;41010;53.252;5.786;2023-07-24T05:35:31;12.85;;;2.97;;
55114;SDS011;41010;53.252;5.786;2023-07-24T05:37:59;8.23;;;2.78;;
55114;SDS011;41010;53.252;5.786;2023-07-24T05:40:26;11.95;;;3.22;;
55114;SDS011;41010;53.252;5.786;2023-07-24T05:42:53;7.57;;;2.90;;
55114;SDS011;41010;53.252;5.786;2023-07-24T05:45:22;9.30;;;3.63;;
55114;SDS011;41010;53.252;5.786;2023-07-24T05:47:49;11.73;;;3.20;;
55114;SDS011;41010;53.252;5.786;2023-07-24T05:50:16;13.75;;;3.10;;
55114;SDS011;41010;53.252;5.786;2023-07-24T05:52:43;9.27;;;3.15;;
55114;SDS011;41010;53.252;5.786;2023-07-24T05:55:11;9.23;;;2.95;;
55114;SDS011;41010;53.252;5.786;2023-07-24T05:57:38;8.65;;;3.25;;
55114;SDS011;41010;53.252;5.786;2023-07-24T06:00:06;7.32;;;3.38;;
55114;SDS011;41010;53.252;5.786;2023-07-24T06:02:35;15.60;;;3.72;;
55114;SDS011;41010;53.252;5.786;2023-07-24T06:05:02;9.07;;;3.00;;
55114;SDS011;41010;53.252;5.786;2023-07-24T06:07:29;12.32;;;3.17;;
55114;SDS011;41010;53.252;5.786;2023-07-24T06:09:57;10.18;;;3.63;;
55114;SDS011;41010;53.252;5.786;2023-07-24T06:12:24;8.73;;;3.00;;
55114;SDS011;41010;53.252;5.786;2023-07-24T06:14:51;9.45;;;3.30;;
55114;SDS011;41010;53.252;5.786;2023-07-24T06:17:19;14.15;;;3.30;;
55114;SDS011;41010;53.252;5.786;2023-07-24T06:19:47;11.38;;;3.53;;
55114;SDS011;41010;53.252;5.786;2023-07-24T06:22:14;11.50;;;3.25;;
55114;SDS011;41010;53.252;5.786;2023-07-24T06:24:42;8.25;;;3.55;;
55114;SDS011;41010;53.252;5.786;2023-07-24T06:27:09;7.90;;;3.33;;
55114;SDS011;41010;53.252;5.786;2023-07-24T06:29:36;10.57;;;3.60;;
55114;SDS011;41010;53.252;5.786;2023-07-24T06:32:04;15.98;;;3.33;;
55114;SDS011;41010;53.252;5.786;2023-07-24T06:34:32;10.25;;;3.35;;
55114;SDS011;41010;53.252;5.786;2023-07-24T06:37:00;11.38;;;2.95;;
55114;SDS011;41010;53.252;5.786;2023-07-24T06:39:28;8.07;;;2.92;;
55114;SDS011;41010;53.252;5.786;2023-07-24T06:41:56;7.65;;;2.83;;
55114;SDS011;41010;53.252;5.786;2023-07-24T06:44:23;6.07;;;2.70;;
55114;SDS011;41010;53.252;5.786;2023-07-24T06:46:50;9.52;;;3.45;;
55114;SDS011;41010;53.252;5.786;2023-07-24T06:49:18;10.65;;;3.33;;
55114;SDS011;41010;53.252;5.786;2023-07-24T06:51:45;9.82;;;3.40;;
55114;SDS011;41010;53.252;5.786;2023-07-24T06:54:13;11.13;;;2.90;;
55114;SDS011;41010;53.252;5.786;2023-07-24T06:56:41;8.98;;;2.95;;
55114;SDS011;41010;53.252;5.786;2023-07-24T06:59:08;10.45;;;3.25;;
55114;SDS011;41010;53.252;5.786;2023-07-24T07:01:35;8.60;;;3.13;;
55114;SDS011;41010;53.252;5.786;2023-07-24T07:04:03;9.95;;;3.00;;
55114;SDS011;41010;53.252;5.786;2023-07-24T07:06:30;10.30;;;2.80;;
55114;SDS011;41010;53.252;5.786;2023-07-24T07:08:57;6.95;;;3.03;;
55114;SDS011;41010;53.252;5.786;2023-07-24T07:11:26;13.98;;;4.18;;
55114;SDS011;41010;53.252;5.786;2023-07-24T07:13:53;12.32;;;3.65;;
55114;SDS011;41010;53.252;5.786;2023-07-24T07:16:20;11.23;;;3.22;;
55114;SDS011;41010;53.252;5.786;2023-07-24T07:18:47;10.10;;;3.22;;
55114;SDS011;41010;53.252;5.786;2023-07-24T07:21:15;10.95;;;2.88;;
55114;SDS011;41010;53.252;5.786;2023-07-24T07:23:42;11.00;;;3.15;;
55114;SDS011;41010;53.252;5.786;2023-07-24T07:26:09;9.43;;;3.65;;
55114;SDS011;41010;53.252;5.786;2023-07-24T07:28:38;8.18;;;2.90;;
55114;SDS011;41010;53.252;5.786;2023-07-24T07:31:05;13.05;;;2.95;;
55114;SDS011;41010;53.252;5.786;2023-07-24T07:33:32;10.70;;;3.17;;
55114;SDS011;41010;53.252;5.786;2023-07-24T07:36:00;12.38;;;3.35;;
55114;SDS011;41010;53.252;5.786;2023-07-24T07:38:27;6.57;;;2.90;;
55114;SDS011;41010;53.252;5.786;2023-07-24T07:40:55;8.00;;;3.00;;
55114;SDS011;41010;53.252;5.786;2023-07-24T07:43:22;5.85;;;2.70;;
55114;SDS011;41010;53.252;5.786;2023-07-24T07:45:50;8.93;;;2.97;;
55114;SDS011;41010;53.252;5.786;2023-07-24T07:48:18;9.48;;;3.00;;
55114;SDS011;41010;53.252;5.786;2023-07-24T07:50:49;7.57;;;3.03;;
55114;SDS011;41010;53.252;5.786;2023-07-24T07:53:17;15.23;;;4.10;;
55114;SDS011;41010;53.252;5.786;2023-07-24T07:55:44;10.10;;;3.58;;
55114;SDS011;41010;53.252;5.786;2023-07-24T07:58:11;8.18;;;2.92;;
55114;SDS011;41010;53.252;5.786;2023-07-24T08:00:38;6.80;;;2.88;;
55114;SDS011;41010;53.252;5.786;2023-07-24T08:03:07;6.93;;;2.70;;
55114;SDS011;41010;53.252;5.786;2023-07-24T08:05:34;10.13;;;3.40;;
55114;SDS011;41010;53.252;5.786;2023-07-24T08:08:02;7.57;;;3.53;;
55114;SDS011;41010;53.252;5.786;2023-07-24T08:10:29;7.82;;;2.30;;
55114;SDS011;41010;53.252;5.786;2023-07-24T08:12:56;11.05;;;3.20;;
55114;SDS011;41010;53.252;5.786;2023-07-24T08:15:23;8.45;;;2.47;;
55114;SDS011;41010;53.252;5.786;2023-07-24T08:17:51;6.38;;;2.58;;
55114;SDS011;41010;53.252;5.786;2023-07-24T08:20:19;5.00;;;2.70;;
55114;SDS011;41010;53.252;5.786;2023-07-24T08:22:47;6.43;;;2.67;;
55114;SDS011;41010;53.252;5.786;2023-07-24T08:25:14;9.52;;;2.70;;
55114;SDS011;41010;53.252;5.786;2023-07-24T08:27:42;5.35;;;3.03;;
55114;SDS011;41010;53.252;5.786;2023-07-24T08:30:10;9.60;;;2.80;;
55114;SDS011;41010;53.252;5.786;2023-07-24T08:32:38;5.88;;;2.63;;
55114;SDS011;41010;53.252;5.786;2023-07-24T08:35:06;8.80;;;3.08;;
55114;SDS011;41010;53.252;5.786;2023-07-24T08:37:35;5.55;;;2.63;;
55114;SDS011;41010;53.252;5.786;2023-07-24T08:40:02;5.82;;;2.70;;
55114;SDS011;41010;53.252;5.786;2023-07-24T08:42:29;5.60;;;2.92;;
55114;SDS011;41010;53.252;5.786;2023-07-24T08:44:58;9.73;;;3.63;;
55114;SDS011;41010;53.252;5.786;2023-07-24T08:47:26;7.80;;;3.90;;
55114;SDS011;41010;53.252;5.786;2023-07-24T08:49:54;8.77;;;3.20;;
55114;SDS011;41010;53.252;5.786;2023-07-24T08:52:22;5.30;;;3.17;;
55114;SDS011;41010;53.252;5.786;2023-07-24T08:54:50;4.20;;;2.88;;
55114;SDS011;41010;53.252;5.786;2023-07-24T08:57:18;3.00;;;2.33;;
55114;SDS011;41010;53.252;5.786;2023-07-24T08:59:46;5.18;;;2.70;;
55114;SDS011;41010;53.252;5.786;2023-07-24T09:02:13;5.68;;;2.80;;
55114;SDS011;41010;53.252;5.786;2023-07-24T09:04:40;3.70;;;2.78;;
55114;SDS011;41010;53.252;5.786;2023-07-24T09:07:07;6.28;;;2.97;;
55114;SDS011;41010;53.252;5.786;2023-07-24T09:09:35;6.07;;;2.90;;
55114;SDS011;41010;53.252;5.786;2023-07-24T09:12:04;6.82;;;2.78;;
55114;SDS011;41010;53.252;5.786;2023-07-24T09:14:31;7.88;;;3.13;;
55114;SDS011;41010;53.252;5.786;2023-07-24T09:17:02;4.22;;;2.65;;
55114;SDS011;41010;53.252;5.786;2023-07-24T09:19:29;3.55;;;2.15;;
55114;SDS011;41010;53.252;5.786;2023-07-24T09:22:06;3.13;;;2.30;;
55114;SDS011;41010;53.252;5.786;2023-07-24T09:24:34;5.68;;;2.40;;
55114;SDS011;41010;53.252;5.786;2023-07-24T09:27:04;3.55;;;2.33;;
55114;SDS011;41010;53.252;5.786;2023-07-24T09:29:33;5.43;;;2.80;;
55114;SDS011;41010;53.252;5.786;2023-07-24T09:32:00;5.15;;;2.65;;
55114;SDS011;41010;53.252;5.786;2023-07-24T09:34:27;5.10;;;2.55;;
55114;SDS011;41010;53.252;5.786;2023-07-24T09:36:55;3.85;;;2.42;;
55114;SDS011;41010;53.252;5.786;2023-07-24T09:39:23;2.70;;;2.00;;
55114;SDS011;41010;53.252;5.786;2023-07-24T09:41:50;3.97;;;2.65;;
55114;SDS011;41010;53.252;5.786;2023-07-24T09:44:18;4.38;;;2.53;;
55114;SDS011;41010;53.252;5.786;2023-07-24T09:46:46;3.30;;;2.50;;
55114;SDS011;41010;53.252;5.786;2023-07-24T09:49:14;5.43;;;2.47;;
55114;SDS011;41010;53.252;5.786;2023-07-24T09:51:41;3.65;;;2.22;;
55114;SDS011;41010;53.252;5.786;2023-07-24T09:54:11;4.80;;;2.20;;
55114;SDS011;41010;53.252;5.786;2023-07-24T09:56:41;2.55;;;1.90;;
55114;SDS011;41010;53.252;5.786;2023-07-24T09:59:09;3.70;;;2.38;;
55114;SDS011;41010;53.252;5.786;2023-07-24T10:01:36;4.03;;;2.60;;
55114;SDS011;41010;53.252;5.786;2023-07-24T10:04:05;4.20;;;2.80;;
55114;SDS011;41010;53.252;5.786;2023-07-24T10:06:34;5.93;;;2.75;;
55114;SDS011;41010;53.252;5.786;2023-07-24T10:09:01;4.85;;;2.33;;
55114;SDS011;41010;53.252;5.786;2023-07-24T10:11:29;2.70;;;2.10;;
55114;SDS011;41010;53.252;5.786;2023-07-24T10:13:56;7.20;;;2.35;;
55114;SDS011;41010;53.252;5.786;2023-07-24T10:16:23;3.38;;;2.13;;
55114;SDS011;41010;53.252;5.786;2023-07-24T10:18:51;3.25;;;2.20;;
55114;SDS011;41010;53.252;5.786;2023-07-24T10:21:25;3.17;;;2.08;;
55114;SDS011;41010;53.252;5.786;2023-07-24T10:23:53;6.43;;;2.40;;
55114;SDS011;41010;53.252;5.786;2023-07-24T10:26:24;4.28;;;2.30;;
55114;SDS011;41010;53.252;5.786;2023-07-24T10:28:51;3.42;;;2.20;;
55114;SDS011;41010;53.252;5.786;2023-07-24T10:31:19;3.53;;;2.15;;
55114;SDS011;41010;53.252;5.786;2023-07-24T10:33:46;3.17;;;2.08;;
55114;SDS011;41010;53.252;5.786;2023-07-24T10:36:16;3.67;;;2.28;;
55114;SDS011;41010;53.252;5.786;2023-07-24T10:38:46;3.67;;;2.38;;
55114;SDS011;41010;53.252;5.786;2023-07-24T10:41:13;5.65;;;2.40;;
55114;SDS011;41010;53.252;5.786;2023-07-24T10:43:43;3.25;;;2.30;;
55114;SDS011;41010;53.252;5.786;2023-07-24T10:46:11;4.18;;;2.10;;
55114;SDS011;41010;53.252;5.786;2023-07-24T10:48:38;3.70;;;2.00;;
55114;SDS011;41010;53.252;5.786;2023-07-24T10:51:09;4.78;;;2.03;;
55114;SDS011;41010;53.252;5.786;2023-07-24T10:53:40;3.00;;;2.03;;
55114;SDS011;41010;53.252;5.786;2023-07-24T10:56:09;4.90;;;2.10;;
55114;SDS011;41010;53.252;5.786;2023-07-24T10:58:37;3.88;;;1.90;;
55114;SDS011;41010;53.252;5.786;2023-07-24T11:01:04;3.25;;;2.00;;
55114;SDS011;41010;53.252;5.786;2023-07-24T11:03:32;3.30;;;2.20;;
55114;SDS011;41010;53.252;5.786;2023-07-24T11:05:59;3.17;;;2.20;;
55114;SDS011;41010;53.252;5.786;2023-07-24T11:08:27;4.75;;;2.28;;
55114;SDS011;41010;53.252;5.786;2023-07-24T11:10:55;4.78;;;2.00;;
55114;SDS011;41010;53.252;5.786;2023-07-24T11:13:24;3.05;;;2.00;;
55114;SDS011;41010;53.252;5.786;2023-07-24T11:15:52;3.78;;;1.80;;
55114;SDS011;41010;53.252;5.786;2023-07-24T11:18:19;2.80;;;1.80;;
55114;SDS011;41010;53.252;5.786;2023-07-24T11:20:48;2.72;;;1.65;;
55114;SDS011;41010;53.252;5.786;2023-07-24T11:23:15;1.92;;;1.38;;
55114;SDS011;41010;53.252;5.786;2023-07-24T11:25:42;1.80;;;1.20;;
55114;SDS011;41010;53.252;5.786;2023-07-24T11:28:10;2.90;;;1.30;;
55114;SDS011;41010;53.252;5.786;2023-07-24T11:30:39;1.70;;;1.20;;
55114;SDS011;41010;53.252;5.786;2023-07-24T11:33:07;1.70;;;1.00;;
55114;SDS011;41010;53.252;5.786;2023-07-24T11:35:35;1.80;;;0.95;;
55114;SDS011;41010;53.252;5.786;2023-07-24T11:38:04;1.20;;;1.05;;
55114;SDS011;41010;53.252;5.786;2023-07-24T11:40:31;0.93;;;0.88;;
55114;SDS011;41010;53.252;5.786;2023-07-24T11:42:59;0.95;;;0.70;;
55114;SDS011;41010;53.252;5.786;2023-07-24T11:45:26;0.85;;;0.77;;
55114;SDS011;41010;53.252;5.786;2023-07-24T11:47:55;3.08;;;0.90;;
55114;SDS011;41010;53.252;5.786;2023-07-24T11:50:23;0.82;;;0.50;;
55114;SDS011;41010;53.252;5.786;2023-07-24T11:52:51;1.40;;;0.70;;
55114;SDS011;41010;53.252;5.786;2023-07-24T11:55:19;0.95;;;0.70;;
55114;SDS011;41010;53.252;5.786;2023-07-24T11:57:56;0.90;;;0.70;;
55114;SDS011;41010;53.252;5.786;2023-07-24T12:00:23;0.50;;;0.50;;
55114;SDS011;41010;53.252;5.786;2023-07-24T12:02:51;2.25;;;0.65;;
55114;SDS011;41010;53.252;5.786;2023-07-24T12:05:20;0.73;;;0.60;;
55114;SDS011;41010;53.252;5.786;2023-07-24T12:07:47;0.80;;;0.50;;
55114;SDS011;41010;53.252;5.786;2023-07-24T12:10:24;2.08;;;0.82;;
55114;SDS011;41010;53.252;5.786;2023-07-24T12:12:52;0.77;;;0.60;;
55114;SDS011;41010;53.252;5.786;2023-07-24T12:15:19;1.55;;;0.80;;
55114;SDS011;41010;53.252;5.786;2023-07-24T12:17:47;2.83;;;0.80;;
55114;SDS011;41010;53.252;5.786;2023-07-24T12:20:14;2.70;;;0.73;;
55114;SDS011;41010;53.252;5.786;2023-07-24T12:22:43;5.13;;;1.00;;
55114;SDS011;41010;53.252;5.786;2023-07-24T12:25:10;3.13;;;0.80;;
55114;SDS011;41010;53.252;5.786;2023-07-24T12:27:37;2.03;;;0.80;;
55114;SDS011;41010;53.252;5.786;2023-07-24T12:30:06;2.10;;;0.88;;
55114;SDS011;41010;53.252;5.786;2023-07-24T12:32:34;2.13;;;0.90;;
55114;SDS011;41010;53.252;5.786;2023-07-24T12:35:01;2.10;;;0.77;;
55114;SDS011;41010;53.252;5.786;2023-07-24T12:37:28;5.50;;;1.05;;
55114;SDS011;41010;53.252;5.786;2023-07-24T12:39:57;4.35;;;0.90;;
55114;SDS011;41010;53.252;5.786;2023-07-24T12:42:24;3.88;;;1.00;;
55114;SDS011;41010;53.252;5.786;2023-07-24T12:44:51;2.63;;;0.90;;
55114;SDS011;41010;53.252;5.786;2023-07-24T12:47:19;6.07;;;1.10;;
55114;SDS011;41010;53.252;5.786;2023-07-24T12:49:46;2.67;;;1.02;;
55114;SDS011;41010;53.252;5.786;2023-07-24T12:52:13;6.38;;;1.50;;
55114;SDS011;41010;53.252;5.786;2023-07-24T12:54:41;3.08;;;1.00;;
55114;SDS011;41010;53.252;5.786;2023-07-24T12:57:09;5.65;;;1.10;;
55114;SDS011;41010;53.252;5.786;2023-07-24T12:59:36;3.45;;;0.98;;
55114;SDS011;41010;53.252;5.786;2023-07-24T13:02:04;3.40;;;1.02;;
55114;SDS011;41010;53.252;5.786;2023-07-24T13:04:31;5.78;;;1.17;;
55114;SDS011;41010;53.252;5.786;2023-07-24T13:06:58;4.40;;;1.30;;
55114;SDS011;41010;53.252;5.786;2023-07-24T13:09:26;2.50;;;0.82;;
55114;SDS011;41010;53.252;5.786;2023-07-24T13:11:54;4.68;;;0.80;;
55114;SDS011;41010;53.252;5.786;2023-07-24T13:14:23;2.92;;;0.90;;
55114;SDS011;41010;53.252;5.786;2023-07-24T13:16:50;5.82;;;1.27;;
55114;SDS011;41010;53.252;5.786;2023-07-24T13:19:17;3.72;;;1.00;;
55114;SDS011;41010;53.252;5.786;2023-07-24T13:21:45;2.30;;;0.60;;
55114;SDS011;41010;53.252;5.786;2023-07-24T13:24:12;2.20;;;0.90;;
55114;SDS011;41010;53.252;5.786;2023-07-24T13:26:40;2.83;;;0.80;;
55114;SDS011;41010;53.252;5.786;2023-07-24T13:29:07;1.70;;;0.68;;
55114;SDS011;41010;53.252;5.786;2023-07-24T13:31:36;2.83;;;0.90;;
55114;SDS011;41010;53.252;5.786;2023-07-24T13:34:05;3.00;;;0.90;;
55114;SDS011;41010;53.252;5.786;2023-07-24T13:36:33;1.65;;;0.70;;
55114;SDS011;41010;53.252;5.786;2023-07-24T13:39:00;2.45;;;0.80;;
55114;SDS011;41010;53.252;5.786;2023-07-24T13:41:27;4.82;;;0.93;;
55114;SDS011;41010;53.252;5.786;2023-07-24T13:43:55;3.78;;;0.90;;
55114;SDS011;41010;53.252;5.786;2023-07-24T13:46:22;7.70;;;1.10;;
55114;SDS011;41010;53.252;5.786;2023-07-24T13:48:51;2.72;;;1.00;;
55114;SDS011;41010;53.252;5.786;2023-07-24T13:51:18;2.67;;;0.90;;
55114;SDS011;41010;53.252;5.786;2023-07-24T13:53:45;2.20;;;0.85;;
55114;SDS011;41010;53.252;5.786;2023-07-24T13:56:14;2.47;;;0.80;;
55114;SDS011;41010;53.252;5.786;2023-07-24T13:58:42;2.65;;;0.90;;
55114;SDS011;41010;53.252;5.786;2023-07-24T14:01:09;1.55;;;0.70;;
55114;SDS011;41010;53.252;5.786;2023-07-24T14:03:36;3.90;;;1.02;;
55114;SDS011;41010;53.252;5.786;2023-07-24T14:06:05;2.72;;;1.00;;
55114;SDS011;41010;53.252;5.786;2023-07-24T14:08:32;2.83;;;1.60;;
55114;SDS011;41010;53.252;5.786;2023-07-24T14:10:59;4.88;;;1.35;;
55114;SDS011;41010;53.252;5.786;2023-07-24T14:13:27;4.53;;;1.00;;
55114;SDS011;41010;53.252;5.786;2023-07-24T14:15:54;3.88;;;1.02;;
55114;SDS011;41010;53.252;5.786;2023-07-24T14:18:21;2.33;;;1.00;;
55114;SDS011;41010;53.252;5.786;2023-07-24T14:20:48;2.88;;;0.90;;
55114;SDS011;41010;53.252;5.786;2023-07-24T14:23:20;2.47;;;1.02;;
55114;SDS011;41010;53.252;5.786;2023-07-24T14:25:48;4.03;;;0.82;;
55114;SDS011;41010;53.252;5.786;2023-07-24T14:28:15;4.28;;;1.10;;
55114;SDS011;41010;53.252;5.786;2023-07-24T14:30:42;2.83;;;1.02;;
55114;SDS011;41010;53.252;5.786;2023-07-24T14:33:09;1.90;;;0.60;;
55114;SDS011;41010;53.252;5.786;2023-07-24T14:35:37;1.83;;;0.70;;
55114;SDS011;41010;53.252;5.786;2023-07-24T14:38:04;3.28;;;0.90;;
55114;SDS011;41010;53.252;5.786;2023-07-24T14:40:32;3.28;;;0.88;;
55114;SDS011;41010;53.252;5.786;2023-07-24T14:43:00;0.85;;;0.60;;
55114;SDS011;41010;53.252;5.786;2023-07-24T14:45:27;2.95;;;0.90;;
55114;SDS011;41010;53.252;5.786;2023-07-24T14:47:54;2.35;;;0.80;;
55114;SDS011;41010;53.252;5.786;2023-07-24T14:50:21;2.83;;;0.90;;